createdAt,value
2018-06-13T00:01:57.626Z,83.07
2018-06-13T00:04:58.120Z,83.04
2018-06-13T00:07:27.903Z,82.85
2018-06-13T00:09:57.649Z,82.94
2018-06-13T00:12:27.982Z,83.02
2018-06-13T00:14:57.757Z,83.25
2018-06-13T00:17:27.492Z,83.62
2018-06-13T00:19:57.243Z,82.47
2018-06-13T00:22:26.929Z,82.88
2018-06-13T00:24:57.384Z,82.09
2018-06-13T00:27:28.259Z,82.19
2018-06-13T00:29:58.140Z,82.93
2018-06-13T00:32:27.922Z,82.81
2018-06-13T00:34:57.743Z,82.23
2018-06-13T00:37:28.344Z,82.34
2018-06-13T00:39:58.130Z,82.22
2018-06-13T00:42:28.486Z,82.88
2018-06-13T00:44:58.230Z,82.40
2018-06-13T00:47:27.952Z,82.37
2018-06-13T00:49:58.617Z,82.61
2018-06-13T00:52:28.291Z,82.80
2018-06-13T00:54:58.138Z,83.00
2018-06-13T00:57:28.192Z,82.40
2018-06-13T00:59:57.955Z,82.57
2018-06-13T01:02:27.748Z,82.34
2018-06-13T01:04:57.470Z,83.24
2018-06-13T01:07:27.318Z,83.29
2018-06-13T01:09:57.096Z,83.05
2018-06-13T01:12:27.242Z,83.59
2018-06-13T01:14:57.188Z,83.77
2018-06-13T01:17:27.008Z,83.57
2018-06-13T01:19:56.866Z,83.20
2018-06-13T01:22:26.772Z,83.89
2018-06-13T01:24:56.488Z,84.34
2018-06-13T01:27:26.208Z,83.88
2018-06-13T01:29:56.728Z,83.86
2018-06-13T01:32:26.490Z,84.74
2018-06-13T01:34:56.245Z,84.98
2018-06-13T01:37:25.975Z,85.29
2018-06-13T01:39:55.878Z,84.95
2018-06-13T01:42:26.361Z,85.20
2018-06-13T01:44:56.133Z,85.03
2018-06-13T01:47:25.837Z,84.63
2018-06-13T01:49:55.696Z,85.34
2018-06-13T01:52:25.490Z,86.62
2018-06-13T01:54:55.223Z,86.86
2018-06-13T01:57:24.978Z,87.37
2018-06-13T01:59:54.690Z,87.09
2018-06-13T02:02:25.007Z,86.37
2018-06-13T02:04:54.751Z,88.54
2018-06-13T02:07:24.450Z,88.64
2018-06-13T02:09:54.500Z,88.09
2018-06-13T02:12:24.262Z,86.60
2018-06-13T02:14:54.086Z,86.66
2018-06-13T02:17:23.898Z,86.53
2018-06-13T02:19:54.196Z,85.99
2018-06-13T02:22:23.946Z,86.20
2018-06-13T02:24:53.964Z,85.99
2018-06-13T02:27:23.721Z,85.83
2018-06-13T02:29:55.200Z,85.40
2018-06-13T02:32:25.006Z,85.65
2018-06-13T02:34:54.722Z,85.95
2018-06-13T02:37:24.481Z,85.84
2018-06-13T02:39:54.332Z,86.00
2018-06-13T02:42:24.063Z,86.55
2018-06-13T02:44:53.791Z,86.42
2018-06-13T02:47:25.318Z,86.88
2018-06-13T02:49:55.062Z,86.49
2018-06-13T02:52:24.814Z,85.90
2018-06-13T02:54:54.599Z,86.53
2018-06-13T02:57:24.354Z,86.01
2018-06-13T02:59:54.110Z,85.96
2018-06-13T03:02:23.848Z,86.41
2018-06-13T03:04:53.636Z,85.85
2018-06-13T03:07:23.022Z,86.54
2018-06-13T03:09:53.264Z,85.79
2018-06-13T03:12:23.019Z,86.40
2018-06-13T03:14:52.790Z,86.22
2018-06-13T03:17:22.518Z,85.38
2018-06-13T03:19:52.294Z,85.37
2018-06-13T03:22:22.066Z,85.05
2018-06-13T03:24:51.822Z,85.68
2018-06-13T03:27:21.664Z,85.88
2018-06-13T03:29:51.410Z,86.19
2018-06-13T03:32:21.168Z,85.91
2018-06-13T03:34:51.434Z,85.99
2018-06-13T03:38:50.537Z,85.44
2018-06-13T03:41:20.247Z,85.05
2018-06-13T03:43:49.951Z,85.72
2018-06-13T03:46:19.697Z,85.46
2018-06-13T03:48:49.429Z,85.29
2018-06-13T03:51:19.204Z,85.15
2018-06-13T03:53:48.918Z,85.32
2018-06-13T03:56:18.687Z,85.33
2018-06-13T03:58:48.419Z,85.00
2018-06-13T04:01:18.154Z,85.12
2018-06-13T04:03:47.958Z,85.36
2018-06-13T04:06:17.671Z,85.26
2018-06-13T04:08:47.416Z,85.89
2018-06-13T04:11:17.211Z,86.30
2018-06-13T04:13:47.011Z,86.30
2018-06-13T04:16:18.039Z,86.07
2018-06-13T04:18:47.763Z,86.11
2018-06-13T04:21:17.513Z,85.64
2018-06-13T04:23:47.213Z,85.09
2018-06-13T04:26:16.932Z,85.36
2018-06-13T04:28:46.892Z,84.93
2018-06-13T04:31:16.615Z,84.82
2018-06-13T04:33:46.362Z,84.16
2018-06-13T04:36:16.127Z,84.31
2018-06-13T04:38:46.619Z,83.42
2018-06-13T04:41:20.364Z,83.58
2018-06-13T04:43:50.084Z,84.07
2018-06-13T04:46:19.882Z,84.03
2018-06-13T04:48:49.689Z,84.12
2018-06-13T04:51:19.493Z,84.81
2018-06-13T04:53:49.271Z,84.89
2018-06-13T04:56:19.024Z,85.42
2018-06-13T04:58:48.793Z,86.04
2018-06-13T05:01:18.552Z,85.80
2018-06-13T05:03:48.285Z,85.95
2018-06-13T05:06:18.313Z,85.76
2018-06-13T05:08:48.323Z,85.53
2018-06-13T05:11:18.128Z,85.68
2018-06-13T05:13:47.990Z,85.18
2018-06-13T05:16:17.376Z,85.24
2018-06-13T05:18:47.180Z,85.90
2018-06-13T05:21:16.912Z,85.95
2018-06-13T05:23:46.718Z,86.14
2018-06-13T05:26:16.531Z,86.20
2018-06-13T05:28:46.277Z,85.84
2018-06-13T05:31:16.055Z,86.12
2018-06-13T05:33:45.843Z,85.91
2018-06-13T05:36:15.583Z,86.13
2018-06-13T05:38:45.720Z,86.08
2018-06-13T05:41:15.486Z,86.46
2018-06-13T05:43:45.376Z,86.85
2018-06-13T05:46:15.324Z,86.44
2018-06-13T05:48:45.167Z,86.30
2018-06-13T05:51:15.667Z,85.80
2018-06-13T05:53:45.425Z,85.95
2018-06-13T05:56:15.290Z,85.55
2018-06-13T05:58:45.025Z,85.31
2018-06-13T06:02:44.405Z,85.71
2018-06-13T06:05:14.234Z,85.18
2018-06-13T06:07:44.123Z,85.83
2018-06-13T06:10:14.639Z,85.80
2018-06-13T06:12:45.014Z,85.64
2018-06-13T06:15:16.203Z,85.48
2018-06-13T06:17:46.017Z,85.36
2018-06-13T06:20:15.793Z,85.32
2018-06-13T06:22:45.537Z,85.19
2018-06-13T06:25:15.836Z,84.63
2018-06-13T06:27:45.671Z,84.27
2018-06-13T06:30:16.122Z,83.96
2018-06-13T06:32:46.030Z,83.62
2018-06-13T06:35:15.855Z,82.60
2018-06-13T06:37:45.689Z,81.75
2018-06-13T06:40:15.596Z,81.93
2018-06-13T06:42:45.477Z,82.21
2018-06-13T06:45:15.376Z,82.39
2018-06-13T06:47:45.216Z,83.15
2018-06-13T06:50:15.014Z,83.51
2018-06-13T06:52:44.888Z,84.50
2018-06-13T06:55:14.857Z,83.91
2018-06-13T06:57:45.196Z,83.63
2018-06-13T07:00:15.023Z,83.95
2018-06-13T07:02:45.135Z,84.29
2018-06-13T07:05:15.074Z,84.02
2018-06-13T07:07:44.886Z,83.99
2018-06-13T07:10:14.782Z,83.39
2018-06-13T07:12:44.632Z,83.55
2018-06-13T07:15:14.509Z,83.91
2018-06-13T07:17:44.080Z,83.70
2018-06-13T07:20:13.967Z,83.56
2018-06-13T07:22:43.898Z,83.46
2018-06-13T07:25:13.694Z,84.02
2018-06-13T07:27:43.804Z,84.21
2018-06-13T07:30:13.780Z,83.83
2018-06-13T07:32:43.888Z,83.59
2018-06-13T07:35:13.678Z,83.36
2018-06-13T07:37:43.592Z,82.57
2018-06-13T07:40:13.565Z,82.75
2018-06-13T07:42:43.324Z,83.09
2018-06-13T07:45:13.232Z,82.55
2018-06-13T07:47:43.102Z,83.28
2018-06-13T07:50:13.948Z,83.61
2018-06-13T07:52:43.748Z,81.50
2018-06-13T07:55:13.727Z,82.30
2018-06-13T07:57:43.754Z,82.37
2018-06-13T08:00:13.588Z,82.95
2018-06-13T08:02:43.362Z,82.64
2018-06-13T08:05:13.153Z,81.07
2018-06-13T08:07:42.988Z,81.84
2018-06-13T08:10:12.817Z,81.67
2018-06-13T08:12:42.608Z,81.66
2018-06-13T08:15:12.474Z,81.83
2018-06-13T08:17:42.328Z,82.02
2018-06-13T08:20:11.766Z,81.65
2018-06-13T08:22:42.248Z,80.20
2018-06-13T08:25:12.162Z,80.61
2018-06-13T08:27:50.674Z,80.38
2018-06-13T08:30:20.513Z,80.64
2018-06-13T08:32:50.407Z,80.79
2018-06-13T08:35:20.206Z,80.99
2018-06-13T08:37:50.074Z,80.24
2018-06-13T08:40:19.888Z,80.97
2018-06-13T08:42:49.700Z,81.04
2018-06-13T08:45:19.604Z,80.95
2018-06-13T08:47:49.402Z,81.33
2018-06-13T08:50:19.236Z,81.92
2018-06-13T08:52:49.164Z,80.82
2018-06-13T08:55:18.979Z,79.76
2018-06-13T08:57:48.751Z,80.32
2018-06-13T09:00:18.620Z,81.56
2018-06-13T09:02:48.621Z,80.93
2018-06-13T09:05:18.544Z,80.28
2018-06-13T09:07:48.400Z,81.62
2018-06-13T09:10:18.700Z,82.08
2018-06-13T09:12:48.643Z,82.34
2018-06-13T09:15:18.393Z,82.82
2018-06-13T09:17:48.210Z,82.67
2018-06-13T09:20:18.072Z,82.60
2018-06-13T09:22:47.829Z,82.59
2018-06-13T09:25:17.817Z,83.90
2018-06-13T09:27:47.918Z,84.81
2018-06-13T09:30:18.350Z,84.87
2018-06-13T09:32:48.122Z,84.85
2018-06-13T09:35:18.055Z,84.97
2018-06-13T09:37:47.867Z,85.35
2018-06-13T09:40:18.059Z,85.46
2018-06-13T09:42:47.838Z,85.87
2018-06-13T09:45:17.695Z,86.86
2018-06-13T09:47:47.692Z,87.19
2018-06-13T09:50:18.289Z,87.51
2018-06-13T09:52:48.076Z,87.22
2018-06-13T09:55:18.276Z,86.64
2018-06-13T09:57:48.101Z,87.78
2018-06-13T10:00:22.975Z,87.23
2018-06-13T10:02:52.807Z,86.85
2018-06-13T10:05:22.655Z,86.49
2018-06-13T10:07:52.466Z,86.52
2018-06-13T10:10:22.515Z,86.26
2018-06-13T10:12:52.283Z,85.40
2018-06-13T10:15:22.115Z,85.69
2018-06-13T10:17:52.358Z,86.18
2018-06-13T10:20:22.178Z,86.26
2018-06-13T10:22:51.979Z,86.03
2018-06-13T10:25:21.951Z,85.66
2018-06-13T10:27:51.946Z,86.28
2018-06-13T10:30:22.069Z,85.74
2018-06-13T10:32:51.864Z,85.89
2018-06-13T10:35:21.732Z,85.27
2018-06-13T10:37:51.564Z,86.38
2018-06-13T10:40:22.285Z,85.56
2018-06-13T10:42:52.156Z,85.54
2018-06-13T10:45:21.984Z,84.81
2018-06-13T10:47:51.754Z,85.42
2018-06-13T10:50:21.557Z,84.09
2018-06-13T10:52:51.434Z,85.19
2018-06-13T10:55:21.234Z,85.21
2018-06-13T10:57:51.379Z,85.36
2018-06-13T11:00:21.222Z,85.34
2018-06-13T11:02:51.662Z,86.01
2018-06-13T11:05:22.160Z,85.46
2018-06-13T11:07:52.011Z,85.04
2018-06-13T11:10:22.278Z,84.40
2018-06-13T11:12:52.056Z,84.60
2018-06-13T11:15:21.935Z,85.21
2018-06-13T11:17:51.786Z,85.42
2018-06-13T11:20:21.689Z,84.79
2018-06-13T11:22:51.628Z,83.97
2018-06-13T11:25:21.491Z,84.69
2018-06-13T11:27:51.333Z,84.60
2018-06-13T11:30:21.195Z,84.41
2018-06-13T11:32:51.125Z,84.33
2018-06-13T11:35:21.164Z,83.84
2018-06-13T11:37:51.422Z,83.17
2018-06-13T11:40:21.767Z,82.95
2018-06-13T11:42:56.984Z,83.19
2018-06-13T11:45:26.879Z,83.06
2018-06-13T11:47:56.795Z,82.68
2018-06-13T11:50:26.623Z,80.42
2018-06-13T11:52:56.535Z,80.70
2018-06-13T11:55:26.376Z,80.10
2018-06-13T11:57:56.603Z,78.84
2018-06-13T12:00:26.409Z,79.21
2018-06-13T12:02:56.455Z,78.37
2018-06-13T12:05:26.253Z,78.25
2018-06-13T12:07:56.009Z,78.56
2018-06-13T12:10:26.287Z,78.15
2018-06-13T12:12:56.072Z,78.54
2018-06-13T12:15:25.959Z,78.47
2018-06-13T12:17:55.846Z,77.77
2018-06-13T12:20:27.154Z,78.03
2018-06-13T12:22:56.987Z,77.25
2018-06-13T12:25:26.855Z,75.37
2018-06-13T12:27:56.673Z,74.88
2018-06-13T12:30:26.484Z,74.79
2018-06-13T12:32:56.349Z,72.97
2018-06-13T12:35:26.442Z,73.55
2018-06-13T12:37:56.239Z,75.03
2018-06-13T12:40:26.056Z,72.39
2018-06-13T12:42:56.019Z,74.60
2018-06-13T12:45:25.878Z,75.13
2018-06-13T12:47:55.931Z,74.45
2018-06-13T12:50:25.973Z,74.42
2018-06-13T12:52:56.297Z,74.31
2018-06-13T12:55:26.459Z,74.80
2018-06-13T12:57:56.317Z,74.73
2018-06-13T13:00:26.095Z,75.69
2018-06-13T13:02:55.859Z,76.36
2018-06-13T13:05:25.709Z,76.66
2018-06-13T13:07:55.528Z,76.48
2018-06-13T13:10:25.453Z,76.74
2018-06-13T13:12:55.309Z,76.65
2018-06-13T13:15:25.233Z,76.14
2018-06-13T13:17:55.682Z,76.51
2018-06-13T13:20:25.741Z,75.89
2018-06-13T13:22:55.791Z,76.53
2018-06-13T13:25:25.667Z,77.43
2018-06-13T13:27:55.475Z,77.56
2018-06-13T13:30:25.767Z,78.17
2018-06-13T13:32:55.678Z,78.15
2018-06-13T13:35:25.487Z,77.94
2018-06-13T13:37:55.361Z,78.34
2018-06-13T13:40:25.162Z,78.04
2018-06-13T13:42:55.802Z,77.90
2018-06-13T13:45:25.655Z,77.31
2018-06-13T13:47:55.673Z,77.63
2018-06-13T13:50:25.850Z,78.25
2018-06-13T13:53:56.959Z,78.00
2018-06-13T13:56:27.017Z,78.02
2018-06-13T13:58:56.850Z,77.48
2018-06-13T14:01:26.679Z,77.78
2018-06-13T14:03:56.547Z,77.41
2018-06-13T14:06:26.393Z,77.01
2018-06-13T14:08:56.272Z,77.13
2018-06-13T14:11:26.095Z,77.96
2018-06-13T14:13:55.940Z,77.85
2018-06-13T14:16:25.913Z,78.32
2018-06-13T14:18:55.740Z,78.30
2018-06-13T14:21:25.559Z,77.55
2018-06-13T14:23:55.367Z,77.51
2018-06-13T14:26:25.190Z,77.31
2018-06-13T14:28:55.166Z,77.40
2018-06-13T14:31:25.044Z,77.10
2018-06-13T14:33:55.192Z,76.44
2018-06-13T14:36:25.127Z,76.97
2018-06-13T14:38:55.048Z,76.27
2018-06-13T14:41:24.931Z,75.07
2018-06-13T14:43:54.808Z,75.76
2018-06-13T14:46:25.153Z,75.35
2018-06-13T14:48:55.950Z,75.69
2018-06-13T14:51:25.729Z,74.65
2018-06-13T14:53:57.115Z,74.30
2018-06-13T14:56:29.155Z,74.45
2018-06-13T14:59:00.626Z,75.39
2018-06-13T15:01:30.759Z,75.62
2018-06-13T15:04:00.577Z,75.87
2018-06-13T15:06:30.461Z,76.05
2018-06-13T15:09:00.301Z,75.90
2018-06-13T15:11:30.181Z,75.30
2018-06-13T15:14:00.066Z,76.10
2018-06-13T15:16:29.912Z,76.15
2018-06-13T15:18:59.749Z,75.57
2018-06-13T15:21:29.776Z,74.75
2018-06-13T15:23:59.564Z,76.85
2018-06-13T15:26:29.847Z,76.32
2018-06-13T15:28:59.651Z,73.54
2018-06-13T15:31:29.609Z,74.53
2018-06-13T15:33:59.510Z,74.11
2018-06-13T15:36:29.357Z,74.09
2018-06-13T15:38:59.201Z,72.07
2018-06-13T15:41:29.316Z,72.46
2018-06-13T15:43:59.714Z,71.69
2018-06-13T15:46:29.566Z,72.47
2018-06-13T15:48:59.476Z,74.05
2018-06-13T15:51:29.327Z,74.25
2018-06-13T15:53:59.132Z,76.03
2018-06-13T15:56:28.910Z,77.25
2018-06-13T15:58:58.838Z,76.99
2018-06-13T16:01:28.894Z,77.31
2018-06-13T16:03:58.734Z,77.86
2018-06-13T16:06:28.674Z,78.19
2018-06-13T16:08:58.542Z,77.13
2018-06-13T16:11:28.436Z,77.51
2018-06-13T16:13:58.910Z,78.53
2018-06-13T16:16:28.775Z,78.80
2018-06-13T16:18:58.663Z,79.34
2018-06-13T16:21:28.490Z,79.33
2018-06-13T16:23:58.642Z,79.32
2018-06-13T16:26:28.744Z,78.74
2018-06-13T16:28:58.532Z,79.61
2018-06-13T16:31:28.407Z,80.72
2018-06-13T16:33:58.271Z,80.47
2018-06-13T16:36:28.083Z,79.92
2018-06-13T16:38:57.900Z,80.00
2018-06-13T16:41:27.678Z,78.99
2018-06-13T16:43:57.548Z,77.58
2018-06-13T16:46:27.367Z,76.99
2018-06-13T16:48:57.176Z,76.82
2018-06-13T16:52:19.300Z,76.47
2018-06-13T16:55:29.825Z,76.67
2018-06-13T16:58:00.132Z,76.47
2018-06-13T17:00:30.628Z,77.00
2018-06-13T17:03:01.429Z,76.57
2018-06-13T17:05:31.307Z,76.79
2018-06-13T17:08:01.151Z,76.76
2018-06-13T17:10:30.934Z,76.40
2018-06-13T17:13:00.751Z,75.85
2018-06-13T17:15:30.571Z,76.17
2018-06-13T17:18:00.654Z,76.58
2018-06-13T17:20:30.435Z,76.20
2018-06-13T17:23:00.298Z,74.16
2018-06-13T17:25:30.118Z,75.47
2018-06-13T17:27:59.907Z,75.88
2018-06-13T17:30:29.735Z,76.06
2018-06-13T17:32:59.523Z,76.59
2018-06-13T17:35:29.366Z,76.67
2018-06-13T17:37:59.809Z,77.37
2018-06-13T17:40:29.604Z,77.43
2018-06-13T17:42:59.697Z,76.81
2018-06-13T17:45:29.477Z,76.21
2018-06-13T17:47:59.637Z,76.13
2018-06-13T17:50:29.483Z,76.18
2018-06-13T17:52:59.319Z,76.86
2018-06-13T17:55:29.153Z,76.01
2018-06-13T17:57:58.978Z,75.83
2018-06-13T18:00:28.779Z,76.39
2018-06-13T18:02:58.987Z,75.97
2018-06-13T18:05:28.867Z,75.41
2018-06-13T18:07:58.873Z,76.53
2018-06-13T18:10:28.732Z,76.41
2018-06-13T18:12:59.180Z,76.62
2018-06-13T18:15:29.039Z,76.44
2018-06-13T18:17:58.824Z,76.54
2018-06-13T18:20:28.727Z,75.54
2018-06-13T18:22:58.590Z,75.80
2018-06-13T18:25:28.544Z,74.89
2018-06-13T18:27:58.439Z,75.55
2018-06-13T18:30:28.211Z,74.90
2018-06-13T18:32:58.124Z,75.97
2018-06-13T18:35:28.141Z,75.53
2018-06-13T18:37:57.990Z,75.70
2018-06-13T18:40:27.760Z,76.57
2018-06-13T18:42:57.575Z,75.64
2018-06-13T18:45:27.426Z,76.43
2018-06-13T18:47:57.292Z,75.91
2018-06-13T18:50:27.188Z,76.55
2018-06-13T18:52:57.074Z,76.93
2018-06-13T18:55:26.908Z,77.03
2018-06-13T18:57:57.130Z,77.42
2018-06-13T19:00:27.126Z,77.15
2018-06-13T19:02:57.182Z,76.97
2018-06-13T19:05:27.032Z,76.66
2018-06-13T19:07:56.878Z,77.09
2018-06-13T19:10:26.876Z,77.66
2018-06-13T19:12:57.447Z,77.53
2018-06-13T19:15:27.848Z,77.47
2018-06-13T19:17:58.036Z,77.49
2018-06-13T19:20:27.874Z,76.66
2018-06-13T19:22:57.660Z,76.62
2018-06-13T19:25:27.520Z,77.13
2018-06-13T19:27:57.368Z,76.93
2018-06-13T19:30:27.158Z,76.97
2018-06-13T19:32:57.136Z,76.70
2018-06-13T19:35:26.980Z,76.76
2018-06-13T19:37:56.847Z,77.45
2018-06-13T19:40:27.062Z,78.01
2018-06-13T19:42:56.880Z,78.21
2018-06-13T19:45:26.736Z,78.21
2018-06-13T19:48:01.738Z,77.75
2018-06-13T19:50:31.732Z,77.72
2018-06-13T19:53:06.710Z,78.00
2018-06-13T19:55:42.060Z,77.93
2018-06-13T20:10:00.704Z,77.75
2018-06-13T20:12:43.850Z,78.18
2018-06-13T20:15:19.024Z,78.15
2018-06-13T20:17:53.844Z,78.82
2018-06-13T20:20:23.712Z,78.54
2018-06-13T20:22:53.889Z,78.66
2018-06-13T20:25:28.957Z,78.36
2018-06-13T20:28:04.771Z,77.65
2018-06-13T20:30:39.752Z,78.09
2018-06-13T20:33:10.886Z,78.70
2018-06-13T20:35:40.714Z,78.62
2018-06-13T20:38:10.527Z,78.71
2018-06-13T20:40:40.396Z,78.96
2018-06-13T20:43:10.344Z,78.94
2018-06-13T20:45:40.198Z,79.24
2018-06-13T20:48:10.002Z,79.02
2018-06-13T20:50:39.452Z,79.03
2018-06-13T20:53:09.397Z,78.95
2018-06-13T20:55:39.576Z,78.28
2018-06-13T20:58:09.432Z,78.89
2018-06-13T21:00:39.286Z,79.57
2018-06-13T21:03:09.259Z,79.53
2018-06-13T21:05:39.553Z,79.05
2018-06-13T21:08:09.778Z,78.58
2018-06-13T21:10:39.824Z,78.87
2018-06-13T21:13:10.046Z,80.00
2018-06-13T21:15:39.930Z,79.52
2018-06-13T21:18:13.186Z,79.75
2018-06-13T21:20:43.042Z,79.83
2018-06-13T21:23:13.068Z,79.82
2018-06-13T21:25:43.716Z,79.62
2018-06-13T21:28:13.580Z,80.16
2018-06-13T21:30:43.500Z,79.66
2018-06-13T21:33:13.389Z,80.09
2018-06-13T21:35:43.580Z,80.22
2018-06-13T21:38:13.446Z,80.43
2018-06-13T21:40:43.510Z,80.32
2018-06-13T21:43:13.311Z,80.55
2018-06-13T21:45:43.192Z,80.56
2018-06-13T21:48:13.315Z,80.73
2018-06-13T21:50:43.120Z,80.71
2018-06-13T21:53:13.049Z,80.79
2018-06-13T21:55:42.804Z,80.63
2018-06-13T21:58:13.203Z,80.46
2018-06-13T22:00:43.512Z,80.41
2018-06-13T22:03:14.357Z,80.65
2018-06-13T22:05:44.358Z,80.92
2018-06-13T22:08:14.207Z,80.70
2018-06-13T22:10:44.035Z,81.49
2018-06-13T22:13:13.855Z,81.25
2018-06-13T22:15:43.715Z,81.51
2018-06-13T22:18:13.197Z,81.00
2018-06-13T22:20:43.031Z,80.75
2018-06-13T22:23:12.837Z,81.27
2018-06-13T22:25:44.092Z,81.29
2018-06-13T22:29:43.531Z,80.84
2018-06-13T22:32:13.393Z,80.77
2018-06-13T22:34:43.242Z,80.40
2018-06-13T22:37:13.027Z,80.70
2018-06-13T22:39:42.927Z,80.74
2018-06-13T22:42:13.131Z,80.83
2018-06-13T22:44:43.271Z,80.42
2018-06-13T22:47:13.239Z,80.72
2018-06-13T22:49:43.032Z,81.33
2018-06-13T22:52:13.560Z,80.73
2018-06-13T22:54:43.717Z,80.28
2018-06-13T22:57:13.677Z,80.44
2018-06-13T22:59:43.529Z,80.56
2018-06-13T23:02:13.379Z,80.58
2018-06-13T23:04:43.528Z,80.49
2018-06-13T23:07:13.105Z,80.57
2018-06-13T23:09:42.975Z,80.74
2018-06-13T23:12:13.312Z,81.53
2018-06-13T23:14:43.200Z,81.82
2018-06-13T23:17:13.189Z,81.98
2018-06-13T23:19:43.108Z,82.86
2018-06-13T23:22:13.158Z,83.85
2018-06-13T23:24:42.965Z,84.57
2018-06-13T23:27:12.819Z,85.52
2018-06-13T23:29:42.868Z,85.88
2018-06-13T23:32:12.998Z,85.93
2018-06-13T23:34:43.760Z,86.66
2018-06-13T23:37:13.633Z,87.10
2018-06-13T23:39:43.723Z,86.75
2018-06-13T23:42:13.936Z,86.90
2018-06-13T23:44:43.732Z,85.28
2018-06-13T23:47:13.580Z,86.90
2018-06-13T23:49:43.523Z,87.22
2018-06-13T23:52:13.341Z,87.79
2018-06-13T23:54:43.223Z,87.17
2018-06-13T23:57:12.973Z,87.39
2018-06-13T23:59:42.809Z,87.38
